Panora, Iowa
Current Conditions -  °F | °C
As of 1:15 AM on Thursday 18 Dec 2014 (Local Time) from KPRO Reporting Station
Overcast Overcast  
Wind Chill: 22°   Ceiling: 8500
Heat Index: 22°   Visibility: 10mi
Dew Point: 19°   Wind: 0mph
Humidity: 91%   Direction: NA
Pressure: 30.29"   Gusts: NA
Location:  41.69°N, 94.36°W
Report Text: KPRO 180715Z AUTO 00000KT 10SM OVC085 M06/M07 A3029 RMK AO2 T10581070
Loading
Personal Weather Stations






























Interactive Weather Map New forecast layout! Learn more

10-Day Weather Forecast

Advertisements
Track Severe Weather on mobile